Portada
METAR-TAF:

METAR-TAF

Aeroports :

Katima Mulilo, Namíbia

latitud: 17-38-04S, longitud: 024-10-36E, altitud: 985 m

Observació

L'informe es va fer fa 16 minuts, a les 14:00 UTC
Vent 6 kt del Est
Temperatura 31°C
Humitat 46%
Pressió 1013 hPa

METAR: FYKM 301400Z AUTO 10006KT //// // ////// 31/18 Q1013

Hora: 16:16 (14:16 UTC)

Pronòstic

L'informe es va fer fa 3 hores i 16 minuts, a les 11:00 UTC
Pronòstic vàlid del 30 a les 12 UTC al 30 a les 21 UTC
Vent 7 kt del Est
Visibilitat 10 km o més
sense núvols per sota de 1500 mi sense presència de cumulonimbus.
Evolucionant progressivament
l' 30 a les 13 UTC al 30 a les 15 UTC
Visibilitat 10 km o més
Núvols disperses a una alçada de 4000 ft

TAF: FYKM 301100Z 3012/3021 08007KT CAVOK BECMG 3013/3015 9999 SCT040

Observacions i pronòstics meteorològics de més de 4000 aeroports (METAR i TAF).

Les estacions disponibles són els punts grocs i vermells al mapa.

Posi el ratolí al punt desitjat per veure el nom de l'estació.

Feu clic per veure les observacions i els pronòstics meteorològics.

Per canviar el mapa: feu clic els botons verds amb una creu de color negre per apropar; al botó verd amb un guió per allunyar la imatge; o en les fletxes verdes per a mapes adjacents.


METAR-TAF: